Time;durP1;ratioP1;P1;durP2;ratioP2;P2;SDS_P1;SDS_P2;PMS_P1;PMS_P2;Temp;Humidity;BMP_temperature;BMP_pressure;BME280_temperature;BME280_humidity;BME280_pressure;Samples;Min_cycle;Max_cycle;Signal;HPM_P1;HPM_P2
2021/05/06 00:34:15;;;;;;;6.80;3.43;;;9.10;99.90;;;;;;5029366;28;20434;-70
2021/05/06 00:36:41;;;;;;;3.53;3.23;;;9.00;99.90;;;;;;5030104;28;22366;-70
2021/05/06 00:39:12;;;;;;;3.87;3.00;;;9.00;99.90;;;;;;5029392;28;20233;-70
2021/05/06 00:55:11;;;;;;;4.07;2.80;;;9.00;99.90;;;;;;5026473;28;20455;-71
2021/05/06 00:58:08;;;;;;;3.97;3.13;;;9.10;99.90;;;;;;5031677;28;20429;-70
2021/05/06 01:03:29;;;;;;;3.40;2.80;;;9.00;99.90;;;;;;5026888;28;20971;-72
2021/05/06 01:06:05;;;;;;;3.27;2.97;;;9.00;99.90;;;;;;5018395;28;20462;-69
2021/05/06 01:08:35;;;;;;;7.00;3.40;;;9.00;99.90;;;;;;5026392;28;21073;-71
2021/05/06 01:13:32;;;;;;;2.90;2.60;;;9.00;99.90;;;;;;5026710;28;20465;-69
2021/05/06 01:15:58;;;;;;;3.37;3.10;;;9.00;99.90;;;;;;5030010;28;21177;-71
2021/05/06 01:18:24;;;;;;;3.70;2.87;;;9.00;99.90;;;;;;5033280;28;20522;-70
2021/05/06 01:20:55;;;;;;;2.90;2.70;;;9.00;99.90;;;;;;5018291;28;20451;-70
2021/05/06 01:23:24;;;;;;;4.10;2.90;;;9.10;99.90;;;;;;5029562;28;21310;-69
2021/05/06 01:26:06;;;;;;;2.70;2.50;;;9.10;99.90;;;;;;5025847;28;20461;-71
2021/05/06 01:28:36;;;;;;;2.90;2.70;;;9.20;99.90;;;;;;5031224;28;20426;-71
2021/05/06 01:31:07;;;;;;;2.63;2.43;;;9.20;99.90;;;;;;5023847;28;21072;-70
2021/05/06 01:36:23;;;;;;;4.23;2.63;;;9.20;99.90;;;;;;5024587;28;20498;-69
2021/05/06 01:41:44;;;;;;;3.00;2.67;;;9.20;99.90;;;;;;5026435;28;20476;-71
2021/05/06 01:44:22;;;;;;;2.60;2.40;;;9.20;99.90;;;;;;5016733;28;21124;-70
2021/05/06 01:47:05;;;;;;;6.73;2.67;;;9.20;99.90;;;;;;5024425;28;20967;-70
2021/05/06 02:00:13;;;;;;;2.77;2.57;;;9.20;99.90;;;;;;5028709;28;20438;-73
2021/05/06 02:02:40;;;;;;;2.83;2.63;;;9.30;99.90;;;;;;5023790;28;20207;-73
2021/05/06 02:05:06;;;;;;;3.40;2.80;;;9.30;99.90;;;;;;5028812;28;20950;-71
2021/05/06 02:07:35;;;;;;;4.40;2.87;;;9.30;99.90;;;;;;5030174;28;20430;-70
2021/05/06 02:10:00;;;;;;;3.53;3.10;;;9.20;99.90;;;;;;5027765;28;20429;-70
2021/05/06 02:12:26;;;;;;;3.00;2.80;;;9.10;99.90;;;;;;5027239;28;21200;-69
2021/05/06 02:15:04;;;;;;;2.97;2.47;;;9.10;99.90;;;;;;5023242;28;20212;-71
2021/05/06 02:17:29;;;;;;;2.97;2.67;;;9.10;99.90;;;;;;5029060;28;20181;-71
2021/05/06 02:19:55;;;;;;;3.20;2.90;;;9.20;99.90;;;;;;5029426;28;20438;-69
2021/05/06 02:22:21;;;;;;;2.87;2.60;;;9.10;99.90;;;;;;5029371;28;20283;-72
2021/05/06 02:24:47;;;;;;;2.80;2.60;;;9.20;99.90;;;;;;5027194;28;20204;-69
2021/05/06 02:27:13;;;;;;;3.37;3.07;;;9.20;99.90;;;;;;5025706;28;20781;-69
2021/05/06 02:29:39;;;;;;;3.17;2.97;;;9.30;99.90;;;;;;5014416;28;20842;-70
2021/05/06 02:32:05;;;;;;;3.17;2.97;;;9.20;99.90;;;;;;5029823;28;20501;-72
2021/05/06 02:34:31;;;;;;;3.90;3.50;;;9.10;99.90;;;;;;5025569;28;20437;-70
2021/05/06 02:36:57;;;;;;;3.00;2.63;;;9.10;99.90;;;;;;5027257;28;20424;-70
2021/05/06 02:39:23;;;;;;;4.33;3.73;;;9.20;99.90;;;;;;5027652;28;20964;-71
2021/05/06 02:41:49;;;;;;;2.90;2.70;;;9.10;99.90;;;;;;5020051;28;20214;-72
2021/05/06 02:44:14;;;;;;;3.23;3.03;;;9.20;99.90;;;;;;5023416;28;20200;-70
2021/05/06 02:46:40;;;;;;;3.40;3.00;;;9.10;99.90;;;;;;5028195;28;20181;-70
2021/05/06 02:49:06;;;;;;;3.30;3.00;;;9.20;99.90;;;;;;5025912;28;20699;-71
2021/05/06 02:51:38;;;;;;;3.30;3.00;;;9.20;99.90;;;;;;5027994;28;20219;-72
2021/05/06 02:54:04;;;;;;;6.90;2.73;;;9.20;99.90;;;;;;5018787;28;20204;-70
2021/05/06 03:04:45;;;;;;;5.60;2.90;;;9.20;99.90;;;;;;5024590;28;20454;-70
2021/05/06 03:07:13;;;;;;;4.83;2.80;;;9.20;99.90;;;;;;5011067;28;20446;-71
2021/05/06 03:22:57;;;;;;;5.43;3.40;;;9.20;99.90;;;;;;5023257;28;20488;-70
2021/05/06 03:25:23;;;;;;;6.37;2.90;;;9.20;99.90;;;;;;5023124;28;21031;-70
2021/05/06 04:18:40;;;;;;;4.80;3.17;;;9.30;99.90;;;;;;5020513;28;20451;-70
2021/05/06 04:26:46;;;;;;;5.80;3.47;;;9.30;99.90;;;;;;5020202;28;20829;-71
2021/05/06 04:37:27;;;;;;;3.67;3.17;;;9.10;99.90;;;;;;5023599;28;20492;-70
2021/05/06 04:39:59;;;;;;;3.50;3.20;;;9.10;99.90;;;;;;5018445;28;20451;-68
2021/05/06 04:45:28;;;;;;;3.73;3.00;;;9.20;99.90;;;;;;5022216;28;20466;-71
2021/05/06 04:56:34;;;;;;;3.40;3.07;;;9.40;99.90;;;;;;5023336;28;21043;-70
2021/05/06 05:06:26;;;;;;;7.57;3.57;;;9.70;99.90;;;;;;5012552;28;20992;-71
2021/05/06 05:09:07;;;;;;;4.70;3.23;;;9.70;99.90;;;;;;5029485;28;20965;-69
2021/05/06 05:11:41;;;;;;;3.50;3.20;;;9.80;99.90;;;;;;5029164;28;20423;-70
2021/05/06 05:24:59;;;;;;;4.10;3.17;;;9.70;99.90;;;;;;5027778;28;20462;-70
2021/05/06 05:27:25;;;;;;;5.70;3.10;;;9.70;99.90;;;;;;5029479;28;20430;-69
2021/05/06 05:29:51;;;;;;;4.87;3.60;;;9.70;99.90;;;;;;5014808;28;20465;-69
2021/05/06 05:32:17;;;;;;;3.33;3.03;;;9.70;99.90;;;;;;5023721;28;20204;-70
2021/05/06 05:34:46;;;;;;;4.37;3.17;;;9.60;99.90;;;;;;5026288;28;20415;-70
2021/05/06 05:37:18;;;;;;;7.10;3.80;;;9.60;99.90;;;;;;5026792;28;20797;-72
2021/05/06 05:55:23;;;;;;;4.23;3.43;;;9.60;99.90;;;;;;5026573;28;20453;-71
2021/05/06 05:57:51;;;;;;;6.07;3.50;;;9.70;99.90;;;;;;5013760;28;20447;-71
2021/05/06 06:00:17;;;;;;;6.17;3.30;;;9.60;99.90;;;;;;5022769;28;20212;-72
2021/05/06 06:02:43;;;;;;;9.97;4.07;;;9.60;99.90;;;;;;5025490;28;21123;-73
2021/05/06 06:05:10;;;;;;;4.70;3.67;;;9.70;99.90;;;;;;5027120;28;20467;-69
2021/05/06 06:07:35;;;;;;;5.20;3.80;;;9.70;99.90;;;;;;5025619;28;21189;-70
2021/05/06 06:10:02;;;;;;;3.20;2.90;;;9.70;99.90;;;;;;5012870;28;20446;-69
2021/05/06 06:12:28;;;;;;;6.20;3.63;;;9.70;99.90;;;;;;5010940;28;20955;-71
2021/05/06 06:17:22;;;;;;;6.40;3.97;;;9.80;99.90;;;;;;5025717;28;21198;-70
2021/05/06 06:19:51;;;;;;;5.23;3.77;;;9.80;99.90;;;;;;5020793;28;20482;-71
2021/05/06 06:22:19;;;;;;;5.43;4.50;;;9.80;99.90;;;;;;5014964;28;20234;-69
2021/05/06 06:24:45;;;;;;;7.17;3.63;;;9.80;99.90;;;;;;5022320;28;20888;-70
2021/05/06 06:27:12;;;;;;;4.53;3.50;;;9.90;99.90;;;;;;5026086;28;20471;-70
2021/05/06 06:29:37;;;;;;;3.33;2.90;;;9.90;99.90;;;;;;5014652;28;20446;-71
2021/05/06 06:32:06;;;;;;;4.83;3.43;;;9.90;99.90;;;;;;5018564;28;20443;-71
2021/05/06 06:34:32;;;;;;;5.10;3.20;;;9.90;99.90;;;;;;5009600;28;20204;-70
2021/05/06 06:36:57;;;;;;;3.47;3.17;;;9.90;99.90;;;;;;5025314;28;20430;-71
2021/05/06 06:39:26;;;;;;;5.77;3.37;;;9.90;99.90;;;;;;5020664;28;20273;-69
2021/05/06 06:41:52;;;;;;;4.70;3.40;;;9.90;99.90;;;;;;5024553;28;20751;-70
2021/05/06 06:44:20;;;;;;;5.60;3.90;;;9.90;99.90;;;;;;5012762;28;20467;-69
2021/05/06 06:46:45;;;;;;;6.03;3.37;;;9.90;99.90;;;;;;5024908;28;20576;-69
2021/05/06 06:49:11;;;;;;;6.07;3.57;;;9.90;99.90;;;;;;5019205;28;20513;-71
2021/05/06 06:51:37;;;;;;;5.00;3.40;;;9.90;99.90;;;;;;5020424;28;20295;-71
2021/05/06 06:54:04;;;;;;;4.03;3.70;;;9.90;99.90;;;;;;5022024;28;20219;-70
2021/05/06 06:56:29;;;;;;;3.63;3.10;;;9.80;99.90;;;;;;5023964;28;21188;-70
2021/05/06 06:58:55;;;;;;;4.23;2.87;;;9.80;99.90;;;;;;5026518;28;20522;-71
2021/05/06 07:01:21;;;;;;;6.60;3.10;;;9.80;99.90;;;;;;5014048;28;20240;-72
2021/05/06 07:03:46;;;;;;;3.70;3.20;;;9.70;99.90;;;;;;5025752;28;20221;-71
2021/05/06 07:06:12;;;;;;;7.67;3.77;;;9.70;99.90;;;;;;5026011;28;20187;-71
2021/05/06 07:08:41;;;;;;;5.30;4.20;;;9.70;99.90;;;;;;5026812;28;20266;-70
2021/05/06 07:11:08;;;;;;;3.90;3.50;;;9.60;99.90;;;;;;5025577;28;20983;-70
2021/05/06 07:13:37;;;;;;;4.57;3.63;;;9.60;99.90;;;;;;5019947;28;20545;-73
2021/05/06 07:16:07;;;;;;;5.43;3.87;;;9.60;99.90;;;;;;5021507;28;20933;-70
2021/05/06 07:18:36;;;;;;;7.10;3.80;;;9.60;99.90;;;;;;5024045;28;20517;-72
2021/05/06 07:21:05;;;;;;;4.90;3.50;;;9.60;99.90;;;;;;5019042;28;20484;-71
2021/05/06 07:23:31;;;;;;;3.10;2.80;;;9.70;99.90;;;;;;5027565;28;20445;-71
2021/05/06 07:25:58;;;;;;;3.90;3.60;;;9.60;99.90;;;;;;5013561;28;20447;-69
2021/05/06 07:28:53;;;;;;;4.13;3.43;;;9.60;99.90;;;;;;5023187;28;20439;-71
2021/05/06 07:31:20;;;;;;;7.00;3.80;;;9.50;99.90;;;;;;5014240;28;20443;-71
2021/05/06 07:33:48;;;;;;;7.70;4.37;;;9.50;99.90;;;;;;5022694;28;20447;-70
2021/05/06 07:36:15;;;;;;;9.77;4.00;;;9.50;99.90;;;;;;5018906;28;20986;-70
2021/05/06 07:38:41;;;;;;;4.60;3.83;;;9.60;99.90;;;;;;5022432;28;20434;-71
2021/05/06 07:41:09;;;;;;;4.73;3.67;;;9.50;99.90;;;;;;5027837;28;20577;-70
2021/05/06 07:43:37;;;;;;;6.87;3.93;;;9.50;99.90;;;;;;5039833;28;20450;-70
2021/05/06 07:46:02;;;;;;;5.63;3.10;;;9.50;99.90;;;;;;5037321;28;20416;-71
2021/05/06 07:48:28;;;;;;;5.40;3.93;;;9.50;99.90;;;;;;5023466;28;21042;-69
2021/05/06 07:50:54;;;;;;;6.80;4.17;;;9.50;99.90;;;;;;5020858;28;20742;-70
2021/05/06 07:53:25;;;;;;;7.47;3.57;;;9.50;99.90;;;;;;5025868;28;20203;-69
2021/05/06 07:55:52;;;;;;;5.60;3.80;;;9.50;99.90;;;;;;5022965;28;20443;-69
2021/05/06 07:58:18;;;;;;;4.70;3.80;;;9.50;99.90;;;;;;5025984;28;20427;-71
2021/05/06 08:00:44;;;;;;;5.80;3.97;;;9.60;99.90;;;;;;5020059;28;20539;-68
2021/05/06 08:03:10;;;;;;;5.87;3.03;;;9.60;99.90;;;;;;5015354;28;20798;-70
2021/05/06 08:05:36;;;;;;;3.63;3.33;;;9.60;99.90;;;;;;5020893;28;20191;-70
2021/05/06 08:08:02;;;;;;;3.83;3.43;;;9.60;99.90;;;;;;5024868;28;20217;-69
2021/05/06 08:10:28;;;;;;;4.50;3.77;;;9.50;99.90;;;;;;5023612;28;20473;-68
2021/05/06 08:12:56;;;;;;;6.50;3.67;;;9.60;99.90;;;;;;5012444;28;20455;-68
2021/05/06 08:15:22;;;;;;;4.00;3.60;;;9.60;99.90;;;;;;5027190;28;20195;-70
2021/05/06 08:17:50;;;;;;;3.50;3.20;;;9.70;99.90;;;;;;5023693;28;20415;-69
2021/05/06 08:20:17;;;;;;;5.67;3.73;;;9.80;99.90;;;;;;5025225;28;20505;-70
2021/05/06 08:22:43;;;;;;;5.97;3.93;;;9.90;99.90;;;;;;5024315;28;20969;-70
2021/05/06 08:25:11;;;;;;;4.60;3.40;;;9.90;99.90;;;;;;5023099;28;20482;-70
2021/05/06 08:27:39;;;;;;;5.20;4.70;;;9.90;99.90;;;;;;5005885;28;20191;-70
2021/05/06 08:30:06;;;;;;;5.57;3.90;;;9.90;99.90;;;;;;5023710;28;20429;-70
2021/05/06 08:32:32;;;;;;;13.83;3.77;;;10.00;99.90;;;;;;5025821;28;20468;-71
2021/05/06 08:34:58;;;;;;;3.83;3.53;;;10.00;99.90;;;;;;5024621;28;20465;-70
2021/05/06 08:37:24;;;;;;;5.07;4.00;;;10.00;99.90;;;;;;5028086;28;20185;-69
2021/05/06 08:39:52;;;;;;;4.43;3.70;;;10.00;99.90;;;;;;5013332;28;21100;-69
2021/05/06 08:42:19;;;;;;;5.33;3.80;;;10.00;99.90;;;;;;5017025;28;20455;-69
2021/05/06 08:44:45;;;;;;;5.00;3.77;;;10.10;99.90;;;;;;5027019;28;20490;-70
2021/05/06 08:47:20;;;;;;;5.20;4.00;;;10.00;99.90;;;;;;5008058;28;20509;-69
2021/05/06 08:49:46;;;;;;;6.70;5.00;;;10.10;99.90;;;;;;5025304;28;20613;-70
2021/05/06 08:52:19;;;;;;;8.03;3.50;;;10.10;99.90;;;;;;5029727;28;20533;-70
2021/05/06 08:54:45;;;;;;;7.13;4.23;;;10.10;99.90;;;;;;5016448;28;20554;-70
2021/05/06 08:57:11;;;;;;;6.70;4.00;;;10.10;99.90;;;;;;5023763;28;20935;-70
2021/05/06 08:59:37;;;;;;;5.17;3.80;;;10.10;99.90;;;;;;5026473;28;20443;-70
2021/05/06 09:02:03;;;;;;;5.47;3.80;;;10.20;99.90;;;;;;5028349;28;20204;-70
2021/05/06 09:04:30;;;;;;;4.43;3.10;;;10.30;99.90;;;;;;5020680;28;20849;-71
2021/05/06 09:06:56;;;;;;;4.10;3.60;;;10.30;99.90;;;;;;5020437;28;20443;-70
2021/05/06 09:09:24;;;;;;;5.90;4.13;;;10.30;99.90;;;;;;5026041;28;20427;-70
2021/05/06 09:12:01;;;;;;;7.03;4.47;;;10.20;99.90;;;;;;5021856;28;20249;-67
2021/05/06 09:14:44;;;;;;;4.07;3.77;;;10.20;99.90;;;;;;5014903;28;20457;-70
2021/05/06 09:17:32;;;;;;;4.57;4.10;;;10.30;99.90;;;;;;5007960;28;20545;-71
2021/05/06 09:20:20;;;;;;;5.60;4.40;;;10.40;99.90;;;;;;5024279;28;20427;-71
2021/05/06 09:22:54;;;;;;;6.73;4.27;;;10.50;99.90;;;;;;5026095;28;21180;-71
2021/05/06 09:25:37;;;;;;;6.47;4.00;;;10.60;99.90;;;;;;5027305;28;20454;-71
2021/05/06 09:28:23;;;;;;;4.40;4.00;;;10.60;99.90;;;;;;5015428;28;21130;-70
2021/05/06 09:31:08;;;;;;;8.23;4.30;;;10.60;99.90;;;;;;5030184;28;20445;-70
2021/05/06 09:33:39;;;;;;;10.20;4.63;;;10.60;99.90;;;;;;5031341;28;20463;-70
2021/05/06 09:36:16;;;;;;;8.73;5.47;;;10.70;99.90;;;;;;5027235;28;20410;-70
2021/05/06 09:38:54;;;;;;;9.03;4.50;;;10.60;99.90;;;;;;5017711;28;20442;-70
2021/05/06 09:41:24;;;;;;;5.30;4.80;;;10.60;99.90;;;;;;5027316;28;20461;-71
2021/05/06 09:43:50;;;;;;;10.67;4.63;;;10.70;99.90;;;;;;5024247;28;20455;-69
2021/05/06 09:46:29;;;;;;;9.30;4.70;;;10.60;99.90;;;;;;5030630;28;20436;-69
2021/05/06 09:48:56;;;;;;;10.20;4.27;;;10.70;99.90;;;;;;5013479;28;20208;-70
2021/05/06 09:51:30;;;;;;;5.10;3.90;;;10.80;99.90;;;;;;5016968;28;21065;-72
2021/05/06 09:53:56;;;;;;;4.63;3.90;;;10.70;99.90;;;;;;5023796;28;20455;-72
2021/05/06 09:56:26;;;;;;;5.30;4.80;;;10.70;99.90;;;;;;5025882;28;20775;-71
2021/05/06 09:58:54;;;;;;;5.13;3.97;;;10.70;99.90;;;;;;5023761;28;20420;-70
2021/05/06 10:01:20;;;;;;;5.93;4.20;;;10.70;99.90;;;;;;5024403;28;20462;-70
2021/05/06 10:03:46;;;;;;;10.60;5.07;;;10.80;99.90;;;;;;5017469;28;20447;-69
2021/05/06 10:06:18;;;;;;;6.37;4.83;;;10.80;99.90;;;;;;5030483;28;20419;-70
2021/05/06 10:08:45;;;;;;;4.80;4.30;;;10.80;99.90;;;;;;5023134;28;20267;-70
2021/05/06 10:11:15;;;;;;;11.37;4.50;;;10.90;99.90;;;;;;5028783;28;20407;-72
2021/05/06 10:13:47;;;;;;;5.23;4.70;;;10.90;99.90;;;;;;5025307;28;20458;-72
2021/05/06 10:16:14;;;;;;;5.43;4.13;;;10.90;99.90;;;;;;5010119;28;20455;-71
2021/05/06 10:18:42;;;;;;;8.60;4.83;;;11.00;99.90;;;;;;5024868;28;20474;-71
2021/05/06 10:21:09;;;;;;;6.93;3.97;;;11.10;99.90;;;;;;5022746;28;20865;-71
2021/05/06 10:23:36;;;;;;;6.47;4.60;;;11.10;99.90;;;;;;5028120;28;20443;-71
2021/05/06 10:26:03;;;;;;;4.50;4.10;;;11.10;99.90;;;;;;5025243;28;20526;-70
2021/05/06 10:28:32;;;;;;;5.17;4.07;;;11.10;99.90;;;;;;5014620;28;20524;-71
2021/05/06 10:31:04;;;;;;;5.10;4.57;;;11.10;99.90;;;;;;5027181;28;20423;-70
2021/05/06 10:33:30;;;;;;;8.20;6.00;;;11.10;99.90;;;;;;5027637;28;20462;-71
2021/05/06 10:35:59;;;;;;;6.80;5.20;;;11.10;99.90;;;;;;5027256;28;20438;-71
2021/05/06 10:38:34;;;;;;;9.67;4.60;;;11.20;99.90;;;;;;5027118;28;20438;-70
2021/05/06 10:41:35;;;;;;;9.80;3.93;;;11.20;99.90;;;;;;5017091;28;20453;-70
2021/05/06 10:44:11;;;;;;;4.63;2.90;;;11.10;99.90;;;;;;5026480;28;20458;-68
2021/05/06 10:46:46;;;;;;;3.13;2.83;;;11.00;99.90;;;;;;5024787;28;20427;-70
2021/05/06 10:49:12;;;;;;;4.03;3.30;;;11.00;99.90;;;;;;5024145;28;20514;-71
2021/05/06 10:51:40;;;;;;;4.80;3.40;;;10.90;99.90;;;;;;5018987;28;20432;-71
2021/05/06 10:54:25;;;;;;;3.20;2.90;;;10.80;99.90;;;;;;5016021;28;20964;-70
2021/05/06 10:56:50;;;;;;;4.03;2.83;;;10.90;99.90;;;;;;5025005;28;20423;-70
2021/05/06 10:59:31;;;;;;;3.37;3.00;;;11.00;99.90;;;;;;5027438;28;20492;-71
2021/05/06 11:01:57;;;;;;;3.20;2.77;;;10.90;99.90;;;;;;5023373;28;20341;-71
2021/05/06 11:04:37;;;;;;;3.23;2.90;;;10.70;99.90;;;;;;5019825;28;20573;-71
2021/05/06 11:07:18;;;;;;;3.87;2.57;;;10.80;99.90;;;;;;5027786;28;20516;-71
2021/05/06 11:09:44;;;;;;;2.67;2.33;;;10.80;99.90;;;;;;5025916;28;20433;-70
2021/05/06 11:12:16;;;;;;;2.73;2.53;;;10.80;99.90;;;;;;5024261;28;20446;-70
2021/05/06 11:15:00;;;;;;;7.10;2.83;;;10.90;99.90;;;;;;5023691;28;20941;-70
2021/05/06 11:17:37;;;;;;;4.47;2.80;;;10.90;99.90;;;;;;5009813;28;20542;-70
2021/05/06 11:20:29;;;;;;;3.00;2.50;;;10.80;99.90;;;;;;5028958;28;20454;-67
2021/05/06 11:23:00;;;;;;;3.10;2.67;;;10.90;99.90;;;;;;5026684;28;20486;-71
2021/05/06 11:25:29;;;;;;;3.10;2.60;;;10.90;99.90;;;;;;5024734;28;20459;-69
2021/05/06 11:27:57;;;;;;;2.77;2.57;;;10.90;99.90;;;;;;5015273;28;20845;-72
2021/05/06 11:30:43;;;;;;;2.63;2.43;;;10.90;99.90;;;;;;5022245;28;20450;-71
2021/05/06 11:33:22;;;;;;;2.87;2.67;;;10.90;99.90;;;;;;5007280;28;20969;-68
2021/05/06 11:35:57;;;;;;;2.90;2.60;;;10.90;99.90;;;;;;5017687;28;20458;-69
2021/05/06 11:38:44;;;;;;;3.20;3.00;;;10.90;99.90;;;;;;5023638;28;20433;-69
2021/05/06 11:41:26;;;;;;;3.10;2.80;;;10.90;99.90;;;;;;5007628;28;21047;-69
2021/05/06 11:43:57;;;;;;;2.50;2.30;;;10.90;99.90;;;;;;5022680;28;20474;-68
2021/05/06 11:46:25;;;;;;;2.50;2.30;;;10.80;99.90;;;;;;5027024;28;20994;-68
2021/05/06 11:48:59;;;;;;;2.83;2.63;;;10.80;99.90;;;;;;5025700;28;20864;-68
2021/05/06 11:51:30;;;;;;;3.67;2.57;;;11.00;99.90;;;;;;5026041;28;20449;-68
2021/05/06 11:54:19;;;;;;;2.30;2.20;;;11.10;99.90;;;;;;5012746;28;20467;-68
2021/05/06 11:56:57;;;;;;;2.47;2.27;;;11.10;99.90;;;;;;5022005;28;20432;-68
2021/05/06 11:59:28;;;;;;;2.80;2.60;;;11.20;99.90;;;;;;5024398;28;20411;-68
2021/05/06 12:01:54;;;;;;;9.40;7.70;;;11.30;99.90;;;;;;5014193;28;20466;-68
2021/05/06 12:04:31;;;;;;;2.83;2.63;;;11.10;99.90;;;;;;5027768;28;20532;-68
2021/05/06 12:06:58;;;;;;;4.80;3.00;;;11.00;99.90;;;;;;5020316;28;20419;-69
2021/05/06 12:09:26;;;;;;;3.00;2.70;;;11.10;99.90;;;;;;5014539;28;20439;-68
2021/05/06 12:11:53;;;;;;;3.10;2.80;;;11.30;99.90;;;;;;5026780;28;21008;-68
2021/05/06 12:14:33;;;;;;;2.73;2.53;;;11.30;99.90;;;;;;5014456;28;20419;-68
2021/05/06 12:16:58;;;;;;;2.80;2.60;;;11.40;99.90;;;;;;5024136;28;20790;-69
2021/05/06 12:19:24;;;;;;;2.87;2.60;;;11.50;99.90;;;;;;5015534;28;20434;-69
2021/05/06 12:21:58;;;;;;;2.57;2.37;;;11.50;99.90;;;;;;5003907;28;20262;-69
2021/05/06 12:24:32;;;;;;;2.50;2.30;;;11.60;99.90;;;;;;5017130;28;20205;-71
2021/05/06 12:26:58;;;;;;;2.87;2.67;;;11.50;99.90;;;;;;5017652;28;20495;-72
2021/05/06 12:29:28;;;;;;;2.20;2.07;;;11.40;99.90;;;;;;5016057;28;20447;-69
2021/05/06 12:31:54;;;;;;;3.23;2.50;;;11.40;99.90;;;;;;5025290;28;20422;-71
2021/05/06 12:34:24;;;;;;;2.80;2.50;;;11.30;99.90;;;;;;5024900;28;21181;-70
2021/05/06 12:36:58;;;;;;;2.60;2.40;;;11.10;99.90;;;;;;5023929;28;20542;-70
2021/05/06 12:39:24;;;;;;;3.33;2.67;;;11.00;99.90;;;;;;5018742;28;20459;-70
2021/05/06 12:41:58;;;;;;;4.40;2.57;;;11.10;99.90;;;;;;5021664;28;20444;-70
2021/05/06 12:44:43;;;;;;;2.60;2.40;;;11.10;99.90;;;;;;5024838;28;20467;-70
2021/05/06 12:47:24;;;;;;;2.20;2.10;;;11.10;99.90;;;;;;5012189;28;20486;-69
2021/05/06 12:50:12;;;;;;;2.33;2.17;;;11.20;99.90;;;;;;5019700;28;20419;-71
2021/05/06 12:52:40;;;;;;;2.03;1.83;;;11.20;99.90;;;;;;5024018;28;20447;-69
2021/05/06 12:55:25;;;;;;;2.70;2.50;;;11.10;99.90;;;;;;5026593;28;22359;-70
2021/05/06 12:58:15;;;;;;;2.30;2.10;;;11.10;99.90;;;;;;5017718;28;20459;-70
2021/05/06 13:00:46;;;;;;;2.60;2.40;;;11.10;99.90;;;;;;5024561;28;20442;-68
2021/05/06 13:03:14;;;;;;;3.00;2.47;;;11.10;99.90;;;;;;5022916;28;20447;-70
2021/05/06 13:05:48;;;;;;;2.50;2.30;;;11.10;99.90;;;;;;5020526;28;20478;-70
2021/05/06 13:08:14;;;;;;;2.70;2.50;;;11.10;99.90;;;;;;5006741;28;20482;-72
2021/05/06 13:10:46;;;;;;;2.40;2.20;;;11.20;99.90;;;;;;5017540;28;20457;-71
2021/05/06 13:13:44;;;;;;;2.30;2.10;;;11.20;99.90;;;;;;5019191;28;20451;-70
2021/05/06 13:16:17;;;;;;;4.50;2.10;;;11.30;99.90;;;;;;5011897;28;21158;-69
2021/05/06 13:19:00;;;;;;;2.10;2.00;;;11.30;99.90;;;;;;5020639;28;20431;-70
2021/05/06 13:21:25;;;;;;;2.10;2.00;;;11.40;99.90;;;;;;5017803;28;20446;-69
2021/05/06 13:23:55;;;;;;;2.77;2.57;;;11.30;99.90;;;;;;5027429;28;21323;-70
2021/05/06 13:26:38;;;;;;;2.20;2.10;;;11.20;99.90;;;;;;5023992;28;20207;-68
2021/05/06 13:29:14;;;;;;;3.00;2.40;;;11.30;99.90;;;;;;5027250;28;20442;-70
2021/05/06 13:31:41;;;;;;;2.50;2.30;;;11.30;99.90;;;;;;5017884;28;20988;-71
2021/05/06 13:34:13;;;;;;;2.87;2.10;;;11.40;99.90;;;;;;5019801;28;20443;-71
2021/05/06 13:36:39;;;;;;;1.90;1.80;;;11.40;99.90;;;;;;5029010;28;20507;-70
2021/05/06 13:39:10;;;;;;;2.10;1.90;;;11.40;99.90;;;;;;5026807;28;20427;-69
2021/05/06 13:41:38;;;;;;;2.13;2.03;;;11.40;99.90;;;;;;5022249;28;20446;-70
2021/05/06 13:44:06;;;;;;;2.10;2.00;;;11.40;99.90;;;;;;5008701;28;20470;-68
2021/05/06 13:46:33;;;;;;;2.07;1.97;;;11.50;99.90;;;;;;5025871;28;20498;-70
2021/05/06 13:49:00;;;;;;;2.17;1.97;;;11.40;99.90;;;;;;5025039;28;20515;-69
2021/05/06 13:51:27;;;;;;;3.00;1.93;;;11.40;99.90;;;;;;5018984;28;21910;-70
2021/05/06 13:53:54;;;;;;;2.03;1.93;;;11.40;99.90;;;;;;5013274;28;20450;-70
2021/05/06 13:56:20;;;;;;;2.00;1.80;;;11.40;99.90;;;;;;5019400;28;20534;-70
2021/05/06 13:58:47;;;;;;;1.97;1.87;;;11.40;99.90;;;;;;5025005;28;20446;-70
2021/05/06 14:01:13;;;;;;;2.07;1.97;;;11.40;99.90;;;;;;5026894;28;20804;-70
2021/05/06 14:03:39;;;;;;;2.10;1.90;;;11.40;99.90;;;;;;5025862;28;20450;-70
2021/05/06 14:06:06;;;;;;;2.20;2.10;;;11.40;99.90;;;;;;5011858;28;20204;-70
2021/05/06 14:08:33;;;;;;;2.60;2.20;;;11.40;99.90;;;;;;5030000;28;20434;-69
2021/05/06 14:10:58;;;;;;;2.43;2.03;;;11.30;99.90;;;;;;5028886;28;20428;-73
2021/05/06 14:13:24;;;;;;;5.30;2.10;;;11.30;99.90;;;;;;5025701;28;20459;-69
2021/05/06 14:15:51;;;;;;;2.97;2.77;;;11.30;99.90;;;;;;5025148;28;20211;-69
2021/05/06 14:18:17;;;;;;;3.80;2.67;;;11.30;99.90;;;;;;5013653;28;20498;-70
2021/05/06 14:20:44;;;;;;;2.40;2.20;;;11.30;99.90;;;;;;5025374;28;20846;-70
2021/05/06 14:23:11;;;;;;;4.00;2.60;;;11.40;99.90;;;;;;5025171;28;21183;-69
2021/05/06 14:25:37;;;;;;;2.27;2.07;;;11.40;99.90;;;;;;5022703;28;21688;-70
2021/05/06 14:28:04;;;;;;;3.90;2.10;;;11.40;99.90;;;;;;5021906;28;20820;-67
2021/05/06 14:30:30;;;;;;;2.17;1.97;;;11.30;99.90;;;;;;5033566;28;20443;-71
2021/05/06 14:32:56;;;;;;;2.87;2.43;;;11.40;99.90;;;;;;5026587;28;20454;-70
2021/05/06 14:35:22;;;;;;;2.60;2.40;;;11.40;99.90;;;;;;5025502;28;21162;-71
2021/05/06 14:37:48;;;;;;;2.27;2.07;;;11.40;99.90;;;;;;5026159;28;20509;-70
2021/05/06 14:40:14;;;;;;;2.87;2.20;;;11.30;99.90;;;;;;5022471;28;20641;-69
2021/05/06 14:42:40;;;;;;;3.80;2.40;;;11.30;99.90;;;;;;5016526;28;20228;-71
2021/05/06 14:45:08;;;;;;;3.63;2.10;;;11.30;99.90;;;;;;5017042;28;20455;-69
2021/05/06 14:47:39;;;;;;;4.60;2.50;;;11.20;99.90;;;;;;5023869;28;20239;-69
2021/05/06 14:50:15;;;;;;;2.63;2.43;;;11.10;99.90;;;;;;5025207;28;20435;-70
2021/05/06 14:52:41;;;;;;;2.50;2.30;;;11.20;99.90;;;;;;5023346;28;20456;-68
2021/05/06 14:55:10;;;;;;;3.43;2.50;;;11.10;99.90;;;;;;5035297;28;20513;-69
2021/05/06 14:57:36;;;;;;;2.50;2.30;;;11.00;99.90;;;;;;5033974;28;20426;-71
2021/05/06 15:00:07;;;;;;;3.17;2.60;;;11.10;99.90;;;;;;5023074;28;20529;-70
2021/05/06 15:02:32;;;;;;;3.13;2.40;;;11.20;99.90;;;;;;5023123;28;20447;-69
2021/05/06 15:04:58;;;;;;;2.67;2.47;;;11.20;99.90;;;;;;5023042;28;20855;-70
2021/05/06 15:07:24;;;;;;;3.17;2.70;;;11.30;99.90;;;;;;5025820;28;20267;-71
2021/05/06 15:09:49;;;;;;;3.33;2.30;;;11.20;99.90;;;;;;5024241;28;20189;-71
2021/05/06 15:12:15;;;;;;;5.03;2.60;;;11.30;99.90;;;;;;5023526;28;20215;-69
2021/05/06 15:14:41;;;;;;;3.20;2.57;;;11.30;99.90;;;;;;5013994;28;20470;-70
2021/05/06 15:17:06;;;;;;;2.90;2.57;;;11.40;99.90;;;;;;5025955;28;20237;-70
2021/05/06 15:19:32;;;;;;;4.10;2.53;;;11.50;99.90;;;;;;5021400;28;20189;-70
2021/05/06 15:21:58;;;;;;;3.07;2.67;;;11.70;99.90;;;;;;5023926;28;20243;-69
2021/05/06 15:24:25;;;;;;;3.20;2.80;;;11.70;99.90;;;;;;5022419;28;20196;-68
2021/05/06 15:26:51;;;;;;;4.30;3.00;;;11.70;99.90;;;;;;5007337;28;20264;-70
2021/05/06 15:29:17;;;;;;;2.37;2.17;;;11.70;99.90;;;;;;5023759;28;20431;-68
2021/05/06 15:31:42;;;;;;;3.93;2.47;;;11.70;99.90;;;;;;5026079;28;20181;-67
2021/05/06 15:34:10;;;;;;;3.00;2.60;;;11.70;99.90;;;;;;5019404;28;20191;-70
2021/05/06 15:36:36;;;;;;;3.33;2.47;;;11.70;99.90;;;;;;5014720;28;20250;-69
2021/05/06 15:39:04;;;;;;;2.37;2.17;;;11.80;99.90;;;;;;5023924;28;20420;-70
2021/05/06 15:41:30;;;;;;;3.43;2.53;;;11.70;99.90;;;;;;5024363;28;20188;-72
2021/05/06 15:43:56;;;;;;;2.87;2.27;;;11.80;99.90;;;;;;5002613;28;20861;-70
2021/05/06 15:46:22;;;;;;;2.30;2.10;;;11.70;99.90;;;;;;5023111;28;20185;-73
2021/05/06 15:48:48;;;;;;;2.80;2.17;;;11.80;99.90;;;;;;5018857;28;20453;-68
2021/05/06 15:51:13;;;;;;;2.50;2.30;;;11.80;99.90;;;;;;5020155;28;20279;-69
2021/05/06 15:53:42;;;;;;;2.83;2.30;;;11.80;99.90;;;;;;5019399;28;20211;-69
2021/05/06 15:56:08;;;;;;;2.40;2.20;;;11.80;99.90;;;;;;5019698;28;20472;-70
2021/05/06 15:58:35;;;;;;;2.23;2.03;;;11.80;99.90;;;;;;5025135;28;20473;-71
2021/05/06 16:01:01;;;;;;;2.20;2.00;;;11.80;99.90;;;;;;5005263;28;20208;-69
2021/05/06 16:03:30;;;;;;;3.33;1.97;;;11.80;99.90;;;;;;5020314;28;20533;-71
2021/05/06 16:05:55;;;;;;;2.63;1.93;;;11.90;99.90;;;;;;5025948;28;20989;-70
2021/05/06 16:08:24;;;;;;;2.27;1.97;;;11.90;99.90;;;;;;5021652;28;20440;-72
2021/05/06 16:10:51;;;;;;;2.43;2.23;;;11.90;99.90;;;;;;5013274;28;20239;-72
2021/05/06 16:13:18;;;;;;;2.50;2.00;;;12.00;99.90;;;;;;5027892;28;20869;-74
2021/05/06 16:15:45;;;;;;;2.23;2.03;;;12.00;99.90;;;;;;5022185;28;20419;-70
2021/05/06 16:18:10;;;;;;;2.53;2.33;;;12.00;99.90;;;;;;5023936;28;20439;-71
2021/05/06 16:20:42;;;;;;;4.17;2.73;;;12.00;99.90;;;;;;5022644;28;20434;-67
2021/05/06 16:23:09;;;;;;;2.43;2.20;;;12.00;99.90;;;;;;5017166;28;20204;-69
2021/05/06 16:25:36;;;;;;;2.90;2.03;;;11.90;99.90;;;;;;5016349;28;20502;-71